Time;durP1;ratioP1;P1;durP2;ratioP2;P2;SDS_P1;SDS_P2;PMS_P1;PMS_P2;Temp;Humidity;BMP_temperature;BMP_pressure;BME280_temperature;BME280_humidity;BME280_pressure;Samples;Min_cycle;Max_cycle;Signal;HPM_P1;HPM_P2
2021/05/10 00:00:51;;;;;;;0.22;0.20;;;;;;;16.20;76.01;100114.75;4896933;29;20048;-83
2021/05/10 00:03:17;;;;;;;0.20;0.20;;;;;;;16.06;75.91;100102.34;4893595;29;20063;-83
2021/05/10 00:05:44;;;;;;;0.10;0.10;;;;;;;16.14;76.19;100123.28;4881067;29;20108;-83
2021/05/10 00:08:09;;;;;;;0.20;0.20;;;;;;;15.98;76.30;100105.00;4880286;29;20078;-84
2021/05/10 00:10:35;;;;;;;0.20;0.20;;;;;;;15.97;76.41;100111.22;4881390;29;20052;-84
2021/05/10 00:13:03;;;;;;;0.10;0.10;;;;;;;15.88;76.50;100099.97;4897011;29;20064;-84
2021/05/10 00:15:29;;;;;;;0.10;0.10;;;;;;;15.81;77.12;100083.28;4898252;29;20056;-83
2021/05/10 00:18:02;;;;;;;0.20;0.20;;;;;;;15.78;77.08;100091.47;4895261;29;20058;-83
2021/05/10 00:20:41;;;;;;;0.20;0.20;;;;;;;15.82;77.14;100119.03;4889457;29;20495;-83
2021/05/10 00:23:07;;;;;;;0.20;0.20;;;;;;;15.82;77.26;100128.72;4895289;29;20059;-83
2021/05/10 00:25:32;;;;;;;0.10;0.10;;;;;;;15.68;77.43;100110.06;4880322;29;20094;-83
2021/05/10 00:27:58;;;;;;;0.10;0.10;;;;;;;15.69;77.59;100116.13;4878028;29;20048;-81
2021/05/10 00:30:25;;;;;;;0.10;0.10;;;;;;;15.68;77.77;100114.47;4895980;29;20096;-83
2021/05/10 00:32:50;;;;;;;0.43;0.20;;;;;;;15.24;78.25;100059.78;4895430;29;21015;-83
2021/05/10 00:35:17;;;;;;;0.20;0.20;;;;;;;15.63;78.16;100116.81;4895518;29;20123;-82
2021/05/10 00:37:43;;;;;;;0.20;0.20;;;;;;;15.46;78.09;100092.38;4910053;29;20524;-82
2021/05/10 00:40:11;;;;;;;0.10;0.10;;;;;;;15.37;78.13;100081.09;4895250;29;20103;-83
2021/05/10 00:42:38;;;;;;;0.10;0.10;;;;;;;15.49;78.98;100107.78;4897438;29;20060;-83
2021/05/10 00:45:05;;;;;;;0.20;0.20;;;;;;;15.34;79.16;100086.66;4897049;29;20415;-83
2021/05/10 00:47:31;;;;;;;0.35;0.20;;;;;;;15.35;78.83;100088.31;4893107;29;20056;-83
2021/05/10 00:49:57;;;;;;;0.20;0.20;;;;;;;15.29;78.39;100083.75;4897525;29;20047;-83
2021/05/10 00:52:22;;;;;;;0.20;0.20;;;;;;;15.38;78.46;100108.94;4880078;29;20056;-83
2021/05/10 00:54:49;;;;;;;0.20;0.20;;;;;;;15.20;78.51;100083.91;4895580;29;20525;-84
2021/05/10 00:57:14;;;;;;;0.20;0.20;;;;;;;15.29;78.35;100098.66;4898286;29;20044;-84
2021/05/10 00:59:40;;;;;;;0.20;0.20;;;;;;;15.32;78.69;100104.38;4852618;29;20092;-84
2021/05/10 01:02:06;;;;;;;0.20;0.20;;;;;;;15.27;78.88;100090.16;4863932;29;20108;-83
2021/05/10 01:04:32;;;;;;;0.10;0.10;;;;;;;15.29;78.82;100090.78;4878718;29;20040;-83
2021/05/10 01:06:57;;;;;;;0.32;0.20;;;;;;;15.31;78.50;100094.88;4876915;29;20133;-84
2021/05/10 01:09:23;;;;;;;0.50;0.20;;;;;;;15.25;78.48;100089.47;4877626;29;20627;-83
2021/05/10 01:11:49;;;;;;;0.20;0.20;;;;;;;15.22;78.71;100092.44;4875125;29;20143;-84
2021/05/10 01:14:14;;;;;;;0.25;0.10;;;;;;;15.12;78.91;100090.00;4881184;29;20052;-84
2021/05/10 01:16:40;;;;;;;0.20;0.20;;;;;;;15.31;78.79;100112.41;4877477;29;20099;-84
2021/05/10 01:19:06;;;;;;;0.13;0.13;;;;;;;15.21;79.32;100115.22;4873723;29;20136;-83
2021/05/10 01:21:32;;;;;;;0.10;0.10;;;;;;;15.24;78.91;100111.44;4861154;29;20048;-83
2021/05/10 01:23:59;;;;;;;0.20;0.20;;;;;;;15.19;79.42;100096.22;4878419;29;20051;-84
2021/05/10 01:26:25;;;;;;;0.30;0.25;;;;;;;15.15;79.25;100094.91;4888446;29;20060;-84
2021/05/10 01:28:51;;;;;;;0.20;0.20;;;;;;;15.26;79.37;100117.31;4872350;29;20496;-84
2021/05/10 01:31:17;;;;;;;0.20;0.20;;;;;;;15.18;78.85;100107.69;4905367;29;20060;-84
2021/05/10 01:33:43;;;;;;;0.20;0.20;;;;;;;15.24;79.12;100125.38;4860662;29;20412;-83
2021/05/10 01:36:09;;;;;;;0.20;0.20;;;;;;;15.08;79.24;100114.91;4890271;29;20632;-84
2021/05/10 01:38:34;;;;;;;0.20;0.20;;;;;;;15.18;79.14;100146.19;4880285;29;20084;-84
2021/05/10 01:41:00;;;;;;;0.20;0.20;;;;;;;14.98;79.58;100114.25;4884004;29;20041;-84
2021/05/10 01:43:26;;;;;;;0.32;0.20;;;;;;;15.13;79.61;100141.47;4867754;29;20052;-83
2021/05/10 01:45:51;;;;;;;0.20;0.20;;;;;;;15.01;79.87;100125.22;4889426;29;20067;-83
2021/05/10 01:48:17;;;;;;;0.20;0.20;;;;;;;14.96;80.06;100121.47;4880372;29;20136;-83
2021/05/10 01:50:47;;;;;;;0.20;0.20;;;;;;;15.01;79.95;100106.06;4876240;29;20056;-83
2021/05/10 01:53:13;;;;;;;0.17;0.17;;;;;;;14.80;80.03;100073.31;4893261;29;20899;-83
2021/05/10 01:55:39;;;;;;;0.20;0.20;;;;;;;14.96;79.98;100093.47;4874881;29;20062;-84
2021/05/10 01:58:06;;;;;;;0.20;0.20;;;;;;;14.60;80.02;100027.47;4906689;29;20060;-82
2021/05/10 02:00:35;;;;;;;0.20;0.20;;;;;;;14.72;80.60;100047.13;4902948;29;20051;-84
2021/05/10 02:03:05;;;;;;;0.20;0.20;;;;;;;14.75;80.32;100062.50;4861717;29;20056;-83
2021/05/10 02:05:31;;;;;;;0.20;0.20;;;;;;;14.88;80.72;100088.22;4877782;29;20044;-83
2021/05/10 02:07:59;;;;;;;0.10;0.10;;;;;;;14.60;80.66;100043.19;4904462;29;20726;-83
2021/05/10 02:10:31;;;;;;;0.20;0.20;;;;;;;14.76;81.04;100061.53;4891801;29;20094;-83
2021/05/10 02:12:59;;;;;;;0.20;0.20;;;;;;;14.75;80.60;100067.75;4878339;29;20048;-84
2021/05/10 02:15:27;;;;;;;0.25;0.20;;;;;;;14.86;80.68;100073.63;4874889;29;20056;-84
2021/05/10 02:17:53;;;;;;;0.73;0.20;;;;;;;14.80;80.99;100073.31;4873140;29;20412;-84
2021/05/10 02:20:21;;;;;;;0.20;0.20;;;;;;;14.84;80.65;100072.97;4890373;29;20051;-83
2021/05/10 02:22:52;;;;;;;0.20;0.20;;;;;;;14.79;80.44;100057.75;4888443;29;20554;-83
2021/05/10 02:25:19;;;;;;;0.20;0.20;;;;;;;14.76;80.79;100047.59;4877678;29;20051;-84
2021/05/10 02:27:45;;;;;;;0.20;0.20;;;;;;;14.74;80.72;100045.16;4876562;29;20135;-83
2021/05/10 02:30:12;;;;;;;0.20;0.20;;;;;;;14.67;80.88;100031.06;4878520;29;20682;-83
2021/05/10 02:32:37;;;;;;;0.10;0.10;;;;;;;14.67;80.94;100041.53;4873554;29;20064;-82
2021/05/10 02:35:03;;;;;;;0.10;0.10;;;;;;;14.73;81.30;100045.31;4875247;29;20044;-84
2021/05/10 02:37:28;;;;;;;0.10;0.10;;;;;;;14.65;81.37;100034.81;4905853;29;20774;-84
2021/05/10 02:39:54;;;;;;;0.10;0.10;;;;;;;14.77;81.52;100049.25;4873437;29;20423;-83
2021/05/10 02:42:19;;;;;;;0.10;0.10;;;;;;;14.78;81.75;100046.44;4873268;29;20056;-84
2021/05/10 02:44:45;;;;;;;0.15;0.15;;;;;;;14.76;81.54;100045.00;4874732;29;20059;-84
2021/05/10 02:47:11;;;;;;;0.30;0.20;;;;;;;14.69;81.45;100023.84;4883106;29;20060;-83
2021/05/10 02:49:36;;;;;;;0.17;0.10;;;;;;;14.80;81.64;100043.66;4893311;29;20054;-83
2021/05/10 02:52:02;;;;;;;0.10;0.10;;;;;;;14.67;81.65;100025.81;4891038;29;20736;-82
2021/05/10 02:54:27;;;;;;;0.20;0.20;;;;;;;14.56;81.49;100004.38;4878699;29;20550;-84
2021/05/10 02:56:53;;;;;;;0.10;0.10;;;;;;;14.61;81.98;100012.56;4897980;29;20063;-84
2021/05/10 02:59:18;;;;;;;0.20;0.20;;;;;;;14.53;81.68;99997.66;4885049;29;20534;-84
2021/05/10 03:01:44;;;;;;;0.20;0.20;;;;;;;14.58;81.60;100007.66;4883109;29;20044;-84
2021/05/10 03:04:10;;;;;;;0.17;0.17;;;;;;;14.62;82.30;100022.06;4893963;29;20063;-83
2021/05/10 03:06:35;;;;;;;0.20;0.20;;;;;;;14.57;82.10;100016.50;4880353;29;20067;-82
2021/05/10 03:09:01;;;;;;;0.20;0.20;;;;;;;14.56;82.42;100020.94;4912968;29;20526;-84
2021/05/10 03:11:26;;;;;;;0.10;0.10;;;;;;;14.57;82.37;100008.66;4897517;29;20183;-84
2021/05/10 03:13:52;;;;;;;0.20;0.20;;;;;;;14.49;82.16;99993.72;4912618;29;20060;-84
2021/05/10 03:16:17;;;;;;;0.20;0.20;;;;;;;14.54;82.44;99996.66;4896317;29;20797;-84
2021/05/10 03:18:43;;;;;;;0.10;0.10;;;;;;;14.64;82.28;100005.19;4898433;29;20052;-84
2021/05/10 03:21:08;;;;;;;0.20;0.20;;;;;;;14.58;82.31;99994.56;4883120;29;20464;-84
2021/05/10 03:23:34;;;;;;;0.20;0.20;;;;;;;14.58;82.63;99995.38;4896142;29;20052;-84
2021/05/10 03:25:59;;;;;;;0.15;0.15;;;;;;;14.58;82.45;99992.75;4915564;29;20103;-85
2021/05/10 03:28:25;;;;;;;0.10;0.10;;;;;;;14.60;82.95;100001.25;4897134;29;20052;-83
2021/05/10 03:30:50;;;;;;;0.15;0.15;;;;;;;14.52;82.79;99982.91;4897606;29;20062;-85
2021/05/10 03:33:17;;;;;;;0.20;0.20;;;;;;;14.62;82.74;100001.09;4898532;29;20051;-84
2021/05/10 03:35:43;;;;;;;0.20;0.20;;;;;;;14.49;82.47;99973.59;4896353;29;20134;-83
2021/05/10 03:38:09;;;;;;;0.20;0.20;;;;;;;14.52;82.80;99982.91;4894926;29;20143;-84
2021/05/10 03:40:34;;;;;;;0.20;0.20;;;;;;;14.59;82.57;99994.38;4896739;29;20079;-84
2021/05/10 03:43:00;;;;;;;0.20;0.20;;;;;;;14.50;83.06;99985.69;4886968;29;20048;-84
2021/05/10 03:45:25;;;;;;;0.10;0.10;;;;;;;14.51;83.40;99987.34;4900201;29;20178;-84
2021/05/10 03:47:51;;;;;;;0.10;0.10;;;;;;;14.49;83.88;99989.31;4895825;29;20472;-83
2021/05/10 03:50:19;;;;;;;0.20;0.20;;;;;;;14.34;83.72;99959.47;4914055;29;20597;-83
2021/05/10 03:52:46;;;;;;;0.20;0.20;;;;;;;14.48;83.80;99973.75;4912628;29;20124;-83
2021/05/10 03:55:16;;;;;;;0.20;0.20;;;;;;;14.44;83.90;99972.47;4928499;29;20047;-83
2021/05/10 03:57:43;;;;;;;0.20;0.20;;;;;;;14.52;84.10;99982.91;4895205;29;20109;-83
2021/05/10 04:00:11;;;;;;;0.20;0.20;;;;;;;14.44;84.59;99972.47;4899901;29;20446;-83
2021/05/10 04:02:38;;;;;;;0.20;0.20;;;;;;;14.59;83.80;99993.56;4895368;29;20523;-82
2021/05/10 04:15:33;;;;;;;0.17;0.17;;;;;;;14.55;84.23;99947.72;4894971;29;20070;-84
2021/05/10 04:17:59;;;;;;;0.20;0.20;;;;;;;14.18;84.01;99889.63;4885503;29;20380;-84
2021/05/10 04:20:24;;;;;;;0.10;0.10;;;;;;;14.35;83.98;99916.59;4880753;29;20039;-84
2021/05/10 04:22:50;;;;;;;0.10;0.10;;;;;;;14.29;83.96;99905.97;4899390;29;20054;-84
2021/05/10 04:25:15;;;;;;;0.20;0.20;;;;;;;14.23;84.06;99899.59;4881224;29;20051;-83
2021/05/10 04:27:41;;;;;;;0.10;0.10;;;;;;;14.61;84.04;99957.53;4895975;29;20147;-84
2021/05/10 04:30:07;;;;;;;0.20;0.20;;;;;;;14.19;83.58;99879.97;4895946;29;20108;-83
2021/05/10 04:32:33;;;;;;;0.10;0.10;;;;;;;14.59;83.99;99943.78;4909741;29;20067;-84
2021/05/10 04:34:58;;;;;;;0.10;0.10;;;;;;;14.24;83.46;99875.06;4897704;29;20040;-84
2021/05/10 04:37:24;;;;;;;0.20;0.20;;;;;;;14.57;83.54;99914.31;4881768;29;20052;-81
2021/05/10 04:39:49;;;;;;;0.20;0.20;;;;;;;14.69;83.55;99936.53;4916800;29;20036;-82
2021/05/10 04:42:15;;;;;;;0.20;0.20;;;;;;;14.57;83.79;99917.75;4914149;29;20426;-81
2021/05/10 04:44:40;;;;;;;0.20;0.20;;;;;;;14.64;83.45;99923.97;4892150;29;20040;-81
2021/05/10 04:47:06;;;;;;;0.20;0.20;;;;;;;14.68;83.11;99932.28;4872820;29;20523;-81
2021/05/10 04:49:31;;;;;;;0.20;0.20;;;;;;;14.66;83.61;99915.94;4906437;29;20053;-81
2021/05/10 04:51:57;;;;;;;0.20;0.20;;;;;;;14.54;83.45;99891.06;4861263;29;20624;-82
2021/05/10 04:54:22;;;;;;;0.20;0.20;;;;;;;14.74;83.25;99931.66;4875309;29;20041;-82
2021/05/10 04:56:48;;;;;;;0.10;0.10;;;;;;;14.79;83.25;99939.81;4846891;29;20059;-82
2021/05/10 04:59:14;;;;;;;0.20;0.20;;;;;;;14.84;82.98;99947.97;4874679;29;20048;-82
2021/05/10 05:01:39;;;;;;;0.10;0.10;;;;;;;14.88;83.08;99954.50;4888753;29;20053;-81
2021/05/10 05:04:05;;;;;;;0.10;0.10;;;;;;;14.83;82.63;99938.47;4892240;29;20578;-82
2021/05/10 05:06:30;;;;;;;0.20;0.20;;;;;;;14.76;82.42;99933.09;4874163;29;20124;-81
2021/05/10 05:08:56;;;;;;;0.28;0.28;;;;;;;14.77;82.52;99936.53;4877508;29;20120;-81
2021/05/10 05:11:21;;;;;;;0.10;0.10;;;;;;;14.85;81.97;99941.75;4843782;29;20044;-82
2021/05/10 05:13:47;;;;;;;0.20;0.20;;;;;;;14.88;82.34;99928.31;4868556;29;20056;-82
2021/05/10 05:16:12;;;;;;;0.20;0.20;;;;;;;14.92;81.37;99928.81;4872049;29;20057;-83
2021/05/10 05:18:38;;;;;;;0.20;0.20;;;;;;;15.02;80.99;99932.84;4872755;29;20049;-81
2021/05/10 05:21:04;;;;;;;0.20;0.20;;;;;;;15.08;80.00;99926.94;4871995;29;20044;-82
2021/05/10 05:23:30;;;;;;;0.13;0.13;;;;;;;15.14;78.70;99914.94;4875616;29;20040;-82
2021/05/10 05:26:01;;;;;;;0.20;0.20;;;;;;;15.28;78.16;99914.22;4861686;29;20056;-81
2021/05/10 05:28:28;;;;;;;0.20;0.20;;;;;;;15.50;76.71;99925.75;4875431;29;20055;-82
2021/05/10 05:30:58;;;;;;;0.20;0.20;;;;;;;15.71;75.61;99930.41;4859024;29;20048;-82
2021/05/10 05:33:25;;;;;;;0.10;0.10;;;;;;;15.86;75.41;99938.34;4891612;29;20116;-82
2021/05/10 05:35:53;;;;;;;0.10;0.10;;;;;;;15.78;73.96;99914.75;4873946;29;20518;-82
2021/05/10 05:38:19;;;;;;;0.17;0.17;;;;;;;15.94;72.27;99922.53;4906427;29;20079;-83
2021/05/10 05:40:45;;;;;;;0.52;0.20;;;;;;;15.92;71.78;99899.06;4872192;29;20083;-83
2021/05/10 05:43:12;;;;;;;0.20;0.20;;;;;;;16.37;69.80;99934.16;4878383;29;20087;-83
2021/05/10 05:45:39;;;;;;;0.10;0.10;;;;;;;16.66;66.92;99924.66;4860786;29;20104;-82
2021/05/10 05:48:07;;;;;;;0.10;0.10;;;;;;;16.76;66.64;99898.97;4890549;29;20052;-83
2021/05/10 05:50:34;;;;;;;0.20;0.20;;;;;;;17.06;64.89;99912.94;4903972;29;20051;-83
2021/05/10 05:53:00;;;;;;;0.10;0.10;;;;;;;17.24;64.25;99920.44;4877160;29;20052;-84
2021/05/10 05:55:27;;;;;;;0.10;0.10;;;;;;;17.40;63.71;99928.09;4891405;29;20037;-83
2021/05/10 05:57:53;;;;;;;0.20;0.20;;;;;;;17.66;62.47;99941.56;4874645;29;20063;-82
2021/05/10 06:00:19;;;;;;;0.10;0.10;;;;;;;17.80;61.09;99932.81;4874341;29;20049;-83
2021/05/10 06:02:45;;;;;;;0.10;0.10;;;;;;;18.04;61.50;99951.88;4890844;29;20052;-82
2021/05/10 06:05:12;;;;;;;0.10;0.10;;;;;;;17.87;60.25;99908.34;4875773;29;20044;-82
2021/05/10 06:07:42;;;;;;;0.10;0.10;;;;;;;18.20;59.70;99945.53;4890609;29;20040;-82
2021/05/10 06:10:10;;;;;;;0.10;0.10;;;;;;;18.18;59.22;99929.09;4874293;29;20051;-83
2021/05/10 06:12:35;;;;;;;0.10;0.10;;;;;;;18.33;59.75;99943.00;4874358;29;20052;-82
2021/05/10 06:15:01;;;;;;;0.20;0.20;;;;;;;18.44;59.45;99958.28;4890590;29;20464;-81
2021/05/10 06:17:27;;;;;;;0.10;0.10;;;;;;;18.47;57.24;99952.63;4891787;29;20052;-83
2021/05/10 06:19:53;;;;;;;0.20;0.20;;;;;;;18.64;57.09;99966.38;4861313;29;20102;-83
2021/05/10 06:22:19;;;;;;;0.10;0.10;;;;;;;18.71;56.55;99968.06;4876319;29;20040;-83
2021/05/10 06:24:45;;;;;;;0.30;0.20;;;;;;;18.80;55.17;99968.72;4907308;29;20044;-83
2021/05/10 06:27:10;;;;;;;0.28;0.20;;;;;;;18.97;55.56;99985.06;4879689;29;20505;-83
2021/05/10 06:29:36;;;;;;;0.25;0.13;;;;;;;18.93;55.17;99984.63;4890991;29;20048;-84
2021/05/10 06:32:02;;;;;;;0.10;0.10;;;;;;;18.70;53.33;99944.53;4908031;29;20075;-83
2021/05/10 06:34:28;;;;;;;0.00;0.00;;;;;;;18.86;55.42;99970.59;4908350;29;20056;-83
2021/05/10 06:36:53;;;;;;;0.10;0.10;;;;;;;18.84;54.72;100004.25;4861756;29;20048;-84
2021/05/10 06:39:19;;;;;;;0.10;0.10;;;;;;;18.78;52.87;99988.38;4873102;29;20496;-84
2021/05/10 06:41:44;;;;;;;0.10;0.10;;;;;;;18.79;53.15;99985.56;4860762;29;20674;-83
2021/05/10 06:44:10;;;;;;;0.30;0.20;;;;;;;18.74;53.16;99966.84;4860559;29;20131;-83
2021/05/10 06:46:37;;;;;;;0.17;0.10;;;;;;;18.99;51.97;99988.31;4885026;29;20148;-83
2021/05/10 06:49:03;;;;;;;0.15;0.15;;;;;;;19.01;52.92;100012.66;4873889;29;20848;-83
2021/05/10 06:51:28;;;;;;;0.20;0.20;;;;;;;18.87;52.86;99974.88;4904800;29;20053;-80
2021/05/10 06:53:54;;;;;;;0.10;0.10;;;;;;;19.09;52.35;100007.25;4904514;29;20523;-80
2021/05/10 06:56:20;;;;;;;0.40;0.10;;;;;;;19.05;53.22;99989.38;4872893;29;20044;-82
2021/05/10 06:58:45;;;;;;;0.10;0.10;;;;;;;19.04;54.54;99987.75;4870793;29;20047;-84
2021/05/10 07:01:11;;;;;;;0.20;0.10;;;;;;;19.08;52.91;99988.97;4902725;29;20052;-79
2021/05/10 07:03:36;;;;;;;0.10;0.10;;;;;;;19.11;53.62;99994.69;4873280;29;20044;-81
2021/05/10 07:06:02;;;;;;;0.20;0.20;;;;;;;19.06;53.26;99989.19;4888062;29;20052;-82
2021/05/10 07:08:27;;;;;;;0.35;0.10;;;;;;;19.14;53.85;100011.94;4871287;29;20076;-82
2021/05/10 07:10:53;;;;;;;0.25;0.20;;;;;;;19.05;54.07;99998.09;4850658;29;20040;-82
2021/05/10 07:13:22;;;;;;;0.10;0.10;;;;;;;19.22;53.90;100028.44;4872961;29;20131;-81
2021/05/10 07:15:48;;;;;;;0.22;0.20;;;;;;;19.10;53.50;100016.00;4873278;29;20592;-80
2021/05/10 07:18:15;;;;;;;0.10;0.10;;;;;;;18.92;53.80;100001.47;4872880;29;20091;-78
2021/05/10 07:20:43;;;;;;;0.10;0.10;;;;;;;19.42;53.24;100056.78;4889749;29;20073;-79
2021/05/10 07:23:10;;;;;;;0.10;0.10;;;;;;;19.69;51.05;100052.44;4870669;29;20424;-78
2021/05/10 07:25:41;;;;;;;0.10;0.10;;;;;;;19.79;50.71;100066.94;4872120;29;20052;-78
2021/05/10 07:28:09;;;;;;;0.10;0.10;;;;;;;19.76;50.97;100071.81;4874212;29;20105;-79
2021/05/10 07:30:35;;;;;;;0.10;0.10;;;;;;;19.76;50.26;100074.44;4875811;29;20041;-79
2021/05/10 07:33:01;;;;;;;0.10;0.10;;;;;;;19.87;51.58;100084.44;4872880;29;20072;-79
2021/05/10 07:35:26;;;;;;;0.82;0.10;;;;;;;19.80;50.78;100089.69;4887788;29;20416;-79
2021/05/10 07:37:52;;;;;;;0.10;0.10;;;;;;;19.74;51.59;100153.03;4871768;29;20049;-80
2021/05/10 07:40:23;;;;;;;0.10;0.10;;;;;;;19.57;51.49;100062.78;4872277;29;20583;-80
2021/05/10 07:42:50;;;;;;;0.10;0.10;;;;;;;19.68;52.04;100112.38;4877924;29;20811;-79
2021/05/10 07:45:16;;;;;;;0.10;0.10;;;;;;;19.56;52.00;100106.84;4890968;29;20049;-78
2021/05/10 07:47:43;;;;;;;0.20;0.20;;;;;;;19.53;54.75;100135.44;4888077;29;20076;-78
2021/05/10 07:50:10;;;;;;;0.20;0.20;;;;;;;19.42;55.42;100113.03;4914714;29;20663;-80
2021/05/10 07:52:35;;;;;;;0.10;0.10;;;;;;;19.30;55.20;100107.47;4908480;29;20132;-82
2021/05/10 07:55:02;;;;;;;0.32;0.13;;;;;;;19.33;52.78;100151.16;4900905;29;20070;-82
2021/05/10 07:57:28;;;;;;;0.57;0.10;;;;;;;18.88;52.67;100108.38;4898693;29;20056;-84
2021/05/10 07:59:54;;;;;;;1.45;0.17;;;;;;;19.00;53.41;100114.75;4874595;29;20092;-79
2021/05/10 08:02:22;;;;;;;0.13;0.13;;;;;;;19.00;52.22;100112.13;4877387;29;20095;-77
2021/05/10 08:04:52;;;;;;;0.10;0.10;;;;;;;18.87;53.50;100146.34;4897537;29;20052;-78
2021/05/10 08:07:18;;;;;;;0.13;0.13;;;;;;;18.50;53.44;100131.56;4876960;29;20131;-78
2021/05/10 08:09:44;;;;;;;0.10;0.10;;;;;;;18.29;54.30;100166.56;4702448;29;80722;-79
2021/05/10 08:12:14;;;;;;;0.13;0.13;;;;;;;18.19;54.57;100179.25;4850986;29;20048;-78
2021/05/10 08:14:40;;;;;;;0.10;0.10;;;;;;;18.16;55.82;100184.06;4860030;29;20480;-80
2021/05/10 08:17:06;;;;;;;0.20;0.20;;;;;;;18.02;55.81;100165.47;4880287;29;20028;-79
2021/05/10 08:19:32;;;;;;;0.13;0.13;;;;;;;17.96;56.52;100184.63;4892241;29;20060;-79
2021/05/10 08:21:59;;;;;;;0.10;0.10;;;;;;;17.89;56.41;100167.91;4895295;29;20047;-79
2021/05/10 08:24:25;;;;;;;0.10;0.10;;;;;;;17.84;56.97;100169.47;4889148;29;20036;-79
2021/05/10 08:26:51;;;;;;;0.10;0.10;;;;;;;17.86;56.82;100212.25;4909934;29;20044;-79
2021/05/10 08:29:17;;;;;;;0.13;0.13;;;;;;;17.93;56.72;100223.69;4876112;29;20064;-80
2021/05/10 08:31:46;;;;;;;0.10;0.10;;;;;;;18.12;57.33;100233.66;4895896;29;20044;-80
2021/05/10 08:34:17;;;;;;;0.10;0.10;;;;;;;18.26;57.12;100234.66;4872688;29;20634;-78
2021/05/10 08:36:43;;;;;;;0.10;0.10;;;;;;;18.34;57.13;100226.66;4911026;29;20119;-80
2021/05/10 08:39:10;;;;;;;0.10;0.10;;;;;;;18.65;56.90;100248.34;4872888;29;20303;-77
2021/05/10 08:41:40;;;;;;;0.10;0.10;;;;;;;18.82;56.60;100264.75;4857286;29;20112;-80
2021/05/10 08:44:07;;;;;;;0.15;0.10;;;;;;;18.78;55.98;100265.34;4860141;29;20570;-81
2021/05/10 08:46:37;;;;;;;0.13;0.13;;;;;;;18.77;55.52;100271.63;4875384;29;20144;-80
2021/05/10 08:49:04;;;;;;;0.10;0.10;;;;;;;18.63;56.07;100252.19;4845092;29;20052;-81
2021/05/10 08:51:30;;;;;;;0.10;0.10;;;;;;;18.85;56.57;100251.22;4841180;29;20116;-81
2021/05/10 08:53:56;;;;;;;0.10;0.10;;;;;;;18.90;56.40;100243.56;4846912;29;20076;-81
2021/05/10 08:56:24;;;;;;;0.10;0.10;;;;;;;18.84;55.66;100238.19;4870358;29;20566;-80
2021/05/10 08:58:50;;;;;;;0.10;0.10;;;;;;;18.68;55.88;100241.91;4877263;29;20040;-81
2021/05/10 09:01:16;;;;;;;0.10;0.10;;;;;;;18.64;55.88;100254.63;4859313;29;21614;-81
2021/05/10 09:03:45;;;;;;;0.10;0.10;;;;;;;18.36;56.61;100246.56;4873878;29;20032;-80
2021/05/10 09:06:31;;;;;;;0.10;0.10;;;;;;;18.31;57.43;100253.38;4842344;29;20052;-80
2021/05/10 09:09:05;;;;;;;0.10;0.10;;;;;;;18.33;57.45;100251.41;4890761;29;20155;-79
2021/05/10 09:11:31;;;;;;;0.10;0.10;;;;;;;18.27;58.30;100254.75;4845931;29;20049;-80
2021/05/10 09:13:58;;;;;;;0.20;0.20;;;;;;;18.20;58.49;100252.03;4859365;29;20105;-78
2021/05/10 09:16:25;;;;;;;0.10;0.10;;;;;;;18.35;58.65;100257.31;4844010;29;20508;-80
2021/05/10 09:18:57;;;;;;;0.10;0.10;;;;;;;18.29;59.54;100268.56;4894750;29;20056;-80
2021/05/10 09:21:29;;;;;;;0.10;0.10;;;;;;;18.04;59.35;100283.81;4847373;29;20048;-79
2021/05/10 09:23:57;;;;;;;0.10;0.10;;;;;;;17.96;59.60;100273.38;4876583;29;20116;-80
2021/05/10 09:26:35;;;;;;;0.10;0.10;;;;;;;17.99;59.04;100273.84;4878532;29;20040;-79
2021/05/10 09:29:02;;;;;;;0.10;0.10;;;;;;;18.02;59.94;100286.66;4872537;29;20044;-80
2021/05/10 09:31:28;;;;;;;0.10;0.10;;;;;;;18.23;59.59;100296.47;4864240;29;20048;-80
2021/05/10 09:33:55;;;;;;;0.10;0.10;;;;;;;18.48;57.97;100283.81;4882010;29;20048;-81
2021/05/10 09:36:40;;;;;;;0.10;0.10;;;;;;;18.68;58.29;100281.47;4858233;29;20065;-80
2021/05/10 09:39:26;;;;;;;0.20;0.20;;;;;;;18.69;57.63;100270.72;4874507;29;20048;-80
2021/05/10 09:42:07;;;;;;;0.10;0.10;;;;;;;18.75;57.75;100295.53;4862197;29;20044;-78
2021/05/10 09:44:41;;;;;;;0.10;0.10;;;;;;;18.59;58.70;100303.63;4879070;29;20047;-78
2021/05/10 09:47:08;;;;;;;0.15;0.13;;;;;;;18.37;58.44;100298.28;4837908;29;20069;-77
2021/05/10 09:49:44;;;;;;;0.10;0.10;;;;;;;18.50;59.01;100321.38;4876923;29;20032;-77
2021/05/10 09:52:22;;;;;;;0.10;0.10;;;;;;;18.53;58.97;100322.81;4871882;29;20087;-77
2021/05/10 09:54:59;;;;;;;0.10;0.10;;;;;;;18.46;58.90;100306.09;4874204;29;20084;-78
2021/05/10 09:57:25;;;;;;;0.10;0.10;;;;;;;18.38;58.95;100336.81;4847610;29;20188;-77
2021/05/10 10:00:13;;;;;;;0.10;0.10;;;;;;;18.57;57.97;100361.81;4856045;29;20095;-77
2021/05/10 10:02:38;;;;;;;0.10;0.10;;;;;;;18.61;57.56;100357.00;4856853;29;20056;-80
2021/05/10 10:05:05;;;;;;;0.10;0.10;;;;;;;18.19;57.84;100328.63;4861832;29;20049;-79
2021/05/10 10:07:31;;;;;;;0.10;0.10;;;;;;;18.30;58.69;100373.81;4852730;29;20041;-77
2021/05/10 10:09:59;;;;;;;0.10;0.10;;;;;;;18.15;58.69;100387.97;4868078;29;20063;-77
2021/05/10 10:12:25;;;;;;;0.10;0.10;;;;;;;17.84;60.03;100403.88;4845672;29;20063;-78
2021/05/10 10:14:51;;;;;;;0.10;0.10;;;;;;;17.37;59.75;100426.69;4859071;29;20048;-78
2021/05/10 10:17:16;;;;;;;0.10;0.10;;;;;;;16.62;63.15;100449.97;4839645;29;20052;-78
2021/05/10 10:19:43;;;;;;;0.10;0.10;;;;;;;16.07;65.02;100445.41;4890394;29;20139;-79
2021/05/10 10:22:11;;;;;;;0.20;0.20;;;;;;;15.63;66.64;100429.97;4856495;29;20404;-80
2021/05/10 10:24:36;;;;;;;0.10;0.10;;;;;;;15.43;66.13;100444.28;4856598;29;20580;-80
2021/05/10 10:27:02;;;;;;;0.10;0.10;;;;;;;15.08;68.05;100459.28;4857968;29;20052;-79
2021/05/10 10:29:31;;;;;;;0.10;0.10;;;;;;;14.67;68.05;100436.44;4889239;29;20100;-78
2021/05/10 10:31:58;;;;;;;0.10;0.10;;;;;;;14.58;68.90;100456.53;4847770;29;20044;-77
2021/05/10 10:34:34;;;;;;;0.10;0.10;;;;;;;14.47;69.65;100464.63;4841927;29;20052;-80
2021/05/10 10:37:01;;;;;;;0.10;0.10;;;;;;;14.66;69.92;100508.16;4839991;29;20048;-79
2021/05/10 10:39:32;;;;;;;0.15;0.15;;;;;;;14.60;70.48;100500.94;4888583;29;20471;-80
2021/05/10 10:42:12;;;;;;;0.10;0.10;;;;;;;14.63;70.81;100508.47;4841579;29;20869;-79
2021/05/10 10:44:45;;;;;;;0.10;0.10;;;;;;;14.67;70.73;100515.88;4887849;29;20713;-78
2021/05/10 10:47:13;;;;;;;0.10;0.10;;;;;;;14.80;70.06;100502.38;4878664;29;20059;-79
2021/05/10 10:49:40;;;;;;;0.10;0.10;;;;;;;14.95;69.84;100507.88;4889525;29;20141;-76
2021/05/10 10:52:24;;;;;;;0.10;0.10;;;;;;;15.19;70.41;100515.03;4875682;29;20509;-77
2021/05/10 10:55:16;;;;;;;0.10;0.10;;;;;;;15.27;69.98;100529.03;4878344;29;20045;-77
2021/05/10 10:57:42;;;;;;;0.10;0.10;;;;;;;15.21;68.84;100537.50;4876003;29;20580;-79
2021/05/10 11:00:10;;;;;;;0.10;0.10;;;;;;;15.17;69.72;100535.34;4904105;29;20626;-79
2021/05/10 11:02:44;;;;;;;0.20;0.20;;;;;;;15.53;69.30;100549.13;4876087;29;20052;-80
2021/05/10 11:05:20;;;;;;;0.10;0.10;;;;;;;15.62;68.20;100551.69;4906276;29;20048;-81
2021/05/10 11:07:49;;;;;;;0.10;0.10;;;;;;;15.73;68.04;100544.47;4864739;29;20169;-82
2021/05/10 11:10:51;;;;;;;0.15;0.15;;;;;;;15.86;68.47;100537.78;4891651;29;20032;-79
2021/05/10 11:13:26;;;;;;;0.10;0.10;;;;;;;15.87;67.84;100538.63;4904798;29;20071;-78
2021/05/10 11:15:59;;;;;;;0.10;0.10;;;;;;;15.94;68.00;100543.06;4893582;29;20151;-77
2021/05/10 11:18:43;;;;;;;0.30;0.15;;;;;;;16.22;67.90;100569.06;4879297;29;20048;-77
2021/05/10 11:21:22;;;;;;;0.10;0.10;;;;;;;16.15;67.31;100575.91;4892686;29;20054;-78
2021/05/10 11:23:57;;;;;;;0.10;0.10;;;;;;;15.95;67.82;100572.75;4861244;29;20059;-78
2021/05/10 11:26:51;;;;;;;0.10;0.10;;;;;;;16.14;67.13;100584.78;4911846;29;20824;-79
2021/05/10 11:29:26;;;;;;;0.10;0.10;;;;;;;16.23;67.20;100599.59;4892632;29;20083;-78
2021/05/10 11:31:53;;;;;;;0.17;0.17;;;;;;;16.22;66.73;100590.06;4895501;29;20131;-79
2021/05/10 11:34:33;;;;;;;0.10;0.10;;;;;;;16.18;66.52;100596.66;4844796;29;20052;-79
2021/05/10 11:37:00;;;;;;;0.10;0.10;;;;;;;16.39;67.18;100604.88;4878469;29;20099;-79
2021/05/10 11:39:31;;;;;;;0.10;0.10;;;;;;;16.52;66.38;100612.31;4843238;29;20052;-78